Flight Track Log - Related Links

Times and Time Zones

All times are in EDT time to prevent confusion due to time zone crossing. See the SWA1535 flight status page for this flight to view local times or setup timezone preferences in your user account.

Time Position Orientation Groundspeed Altitude Reporting Facility
EDT Latitude Longitude Course Direction KTS MPH feet Rate Location/Type
Tue 09:17:52 PM 41.3633 -95.9756 316° Northwest 223 257 4,700  Level Minneapolis Center
Tue 09:18:46 PM 41.4014 -96.0489 305° West 301 346 7,300 3,120 Climbing Minneapolis Center
Tue 09:19:07 PM 41.4108 -96.0650 308° West 259 298 8,600 3,614 Climbing Minneapolis Center
Tue 09:20:09 PM 41.4392 -96.1611 291° West 280 322 12,300 4,000 Climbing Minneapolis Center
Tue 09:21:10 PM 41.4625 -96.2939 283° West 305 351 16,800 4,000 Climbing Minneapolis Center
Tue 09:22:12 PM 41.4650 -96.4147 272° West 324 373 20,500 2,829 Climbing Minneapolis Center
Tue 09:23:13 PM 41.4589 -96.5422 266° West 347 399 22,600 2,293 Climbing Minneapolis Center
Tue 09:24:15 PM 41.4531 -96.6800 267° West 370 426 25,200 2,390 Climbing Minneapolis Center
Tue 09:25:16 PM 41.4481 -96.8225 267° West 383 441 27,500 2,146 Climbing Minneapolis Center
Tue 09:26:18 PM 41.4411 -96.9697 266° West 395 455 29,600 2,098 Climbing Minneapolis Center
Tue 09:27:19 PM 41.4347 -97.1206 267° West 404 465 31,800 2,244 Climbing Minneapolis Center
Tue 09:28:21 PM 41.4289 -97.2681 267° West 402 463 34,200 1,902 Climbing Minneapolis Center
Tue 09:29:22 PM 41.4244 -97.3844 267° West 396 456 35,700 1,854 Climbing Minneapolis Center
Tue 09:30:24 PM 41.4147 -97.5883 266° West 395 455 38,000 1,756 Climbing Minneapolis Center
Tue 09:31:25 PM 41.4078 -97.7319 266° West 390 449 39,300 976 Climbing Minneapolis Center
Tue 09:32:27 PM 41.4000 -97.8769 266° West 392 451 40,000 341 Climbing Minneapolis Center
Tue 09:33:28 PM 41.3931 -98.0211 266° West 390 449 40,000  Level Minneapolis Center
Tue 09:34:29 PM 41.3853 -98.1647 266° West 393 452 40,000  Level Minneapolis Center
Tue 09:35:31 PM 41.3781 -98.3094 266° West 392 451 40,000  Level Minneapolis Center
Tue 09:36:32 PM 41.3594 -98.4217 258° West 397 457 40,000  Level Minneapolis Center
Tue 09:37:33 PM 41.3181 -98.5897 252° West 393 452 40,000  Level Minneapolis Center
Tue 09:38:35 PM 41.2836 -98.7272 252° West 394 453 40,000  Level Minneapolis Center
Tue 09:39:36 PM 41.2442 -98.8947 253° West 395 455 40,000  Level Minneapolis Center
Tue 09:40:37 PM 41.2086 -99.0322 251° West 395 455 40,000 -148 Level Minneapolis Center
Tue 09:41:38 PM 41.1800 -99.1581 253° West 390 449 39,700 -1,113 Descending Minneapolis Center
Tue 09:42:41 PM 41.1553 -99.2967 257° West 387 445 37,700 -1,776 Descending Denver Center
Tue 09:43:43 PM 41.1253 -99.4572 256° West 377 434 36,000 -823 Descending Denver Center
Tue 09:44:45 PM 41.0989 -99.5939 256° West 372 428 36,000  Level Denver Center
Tue 09:45:46 PM 41.0750 -99.7206 256° West 370 426 36,000  Level Denver Center
Tue 09:46:48 PM 41.0500 -99.8497 256° West 376 433 36,000  Level Denver Center
Tue 09:47:50 PM 41.0211 -100.0008 256° West 379 436 36,000  Level Denver Center
Tue 09:48:51 PM 40.9958 -100.1300 256° West 379 436 36,000  Level Denver Center
Tue 09:49:53 PM 40.9664 -100.2811 256° West 380 437 36,000  Level Denver Center
Tue 09:50:55 PM 40.9406 -100.4103 255° West 380 437 36,000  Level Denver Center
Tue 09:51:56 PM 40.9114 -100.5614 256° West 381 438 36,000  Level Denver Center
Tue 09:53:10 PM 40.8869 -100.6867 256° West 377 434 36,000  Level Denver Center
Tue 09:54:12 PM 40.8517 -100.8531 254° West 382 440 36,000  Level Denver Center
Tue 09:55:14 PM 40.8217 -101.0011 255° West 377 434 36,000  Level Denver Center
Tue 09:56:27 PM 40.7961 -101.1278 255° West 376 433 36,000  Level Denver Center
Tue 09:57:29 PM 40.7614 -101.2969 255° West 375 432 36,000  Level Denver Center
Tue 09:58:31 PM 40.7356 -101.4228 255° West 373 429 36,000  Level Denver Center
Tue 09:59:44 PM 40.7058 -101.5669 255° West 367 422 36,000  Level Denver Center
Tue 10:00:46 PM 40.6750 -101.7103 254° West 365 420 36,000  Level Denver Center
Tue 10:01:48 PM 40.6456 -101.8531 255° West 363 418 36,000  Level Denver Center
Tue 10:02:49 PM 40.6189 -101.9767 254° West 366 421 36,000  Level Denver Center
Tue 10:03:51 PM 40.5878 -102.1203 254° West 365 420 36,000  Level Denver Center
Tue 10:04:53 PM 40.5608 -102.2431 254° West 365 420 36,000  Level Denver Center
Tue 10:06:06 PM 40.5353 -102.3661 255° West 364 419 36,000  Level Denver Center
Tue 10:07:08 PM 40.4989 -102.5286 254° West 364 419 36,000  Level Denver Center
Tue 10:08:10 PM 40.4675 -102.6708 254° West 369 425 36,000  Level Denver Center
Tue 10:09:11 PM 40.4381 -102.7989 253° West 365 420 36,000  Level Denver Center
Tue 10:10:13 PM 40.4100 -102.9289 254° West 366 421 36,000 -908 Level Denver Center
Tue 10:12:16 PM 40.3528 -103.1875 254° West 364 419 33,200 -1,728 Descending Denver Center
Tue 10:13:17 PM 40.3231 -103.3161 253° West 365 420 30,700 -2,390 Descending Denver Center
Tue 10:14:19 PM 40.2942 -103.4428 253° West 360 414 28,300 -2,244 Descending Denver Center
Tue 10:15:20 PM 40.2675 -103.5631 254° West 345 397 26,100 -2,146 Descending Denver Center
Tue 10:16:22 PM 40.2408 -103.6792 253° West 332 382 23,900 -1,435 Descending Denver Center
Tue 10:18:24 PM 40.1814 -103.8992 251° West 337 388 21,700 -1,435 Descending Denver Center
Tue 10:19:26 PM 40.1236 -104.0189 238° Southwest 313 360 19,500 -1,805 Descending Denver Center
Tue 10:20:27 PM 40.0858 -104.1000 239° Southwest 308 354 18,000 -1,659 Descending Denver Center
Tue 10:21:29 PM 40.0308 -104.2181 239° Southwest 309 356 16,100 -1,610 Descending Denver Center
Tue 10:22:30 PM 39.9875 -104.3128 239° Southwest 306 352 14,700 -1,271 Descending Denver Center
Tue 10:23:27 PM 39.9500 -104.4000 241° Southwest 264 304 13,600 -1,231 Descending Denver TRACON
Tue 10:24:27 PM 39.9167 -104.4833 242° Southwest 268 308 12,300 -1,150 Descending Denver TRACON
Tue 10:25:27 PM 39.8333 -104.5000 189° South 273 314 11,300 -800 Descending Denver TRACON
Tue 10:26:27 PM 39.7667 -104.5000 180° South 242 278 10,700 -895 Descending Denver TRACON
Tue 10:27:21 PM 39.7167 -104.5000 180° South 238 274 9,600 -1,029 Descending Denver TRACON
Tue 10:27:37 PM 39.6994 -104.5100 204° Southwest 230 265 9,500 -935 Descending Denver Center
Tue 10:28:38 PM 39.6892 -104.5992 262° West 231 266 8,400 -976 Descending Denver Center
Tue 10:29:40 PM 39.7244 -104.6428 316° Northwest 200 230 7,500 -878 Descending Denver Center
Tue 10:30:41 PM 39.7722 -104.6433 359° North 172 198 6,600 -787 Descending Denver Center
Tue 10:31:42 PM 39.8061 -104.6419 North 124 143 5,900 -634 Descending Denver Center
Tue 10:32:44 PM 39.8433 -104.6417 360° North 122 140 5,300 -581 Descending Denver Center
Tue 10:34:00 PM 39.8500 -104.6667 North  Level FlightAware Approximate
Tue 10:41:00 PM 39.8617 -104.6732 North  Level Estimated
Tue 10:42:00 PM 39.8617 -104.6732 North  Level Estimated
Tue 10:43:00 PM 39.8617 -104.6732 North  Level Estimated

Login

Don't have an account? Register now (free) for customized features, flight alerts, and more!